Time;durP1;ratioP1;P1;durP2;ratioP2;P2;SDS_P1;SDS_P2;PMS_P1;PMS_P2;Temp;Humidity;BMP_temperature;BMP_pressure;BME280_temperature;BME280_humidity;BME280_pressure;Samples;Min_cycle;Max_cycle;Signal;HPM_P1;HPM_P2
2023/06/09 00:00:48;;;;;;;6.35;4.07;;;;;;;18.16;80.59;101309.50;4989179;28;20025;-63
2023/06/09 00:03:16;;;;;;;8.93;3.95;;;;;;;18.11;81.28;101317.31;4989396;28;20042;-63
2023/06/09 00:05:41;;;;;;;8.55;3.70;;;;;;;18.05;80.57;101312.00;4989382;28;20037;-63
2023/06/09 00:08:07;;;;;;;7.05;3.75;;;;;;;18.00;81.57;101315.50;4989000;28;20474;-63
2023/06/09 00:10:32;;;;;;;5.05;3.28;;;;;;;17.98;81.42;101311.97;4989214;28;20522;-63
2023/06/09 00:12:58;;;;;;;8.57;3.30;;;;;;;17.95;80.81;101308.44;4988684;28;20022;-63
2023/06/09 00:15:23;;;;;;;7.43;3.25;;;;;;;17.90;81.38;101313.63;4988751;28;20466;-63
2023/06/09 00:17:49;;;;;;;8.32;3.80;;;;;;;17.86;80.46;101317.97;4988973;28;20022;-63
2023/06/09 00:20:14;;;;;;;6.95;3.50;;;;;;;17.81;81.38;101301.31;4989437;28;20026;-63
2023/06/09 00:22:44;;;;;;;7.25;3.95;;;;;;;17.80;81.56;101304.81;4989025;28;20266;-63
2023/06/09 00:25:13;;;;;;;7.15;3.67;;;;;;;17.71;81.35;101313.47;4988624;28;20395;-63
2023/06/09 00:27:40;;;;;;;7.95;3.50;;;;;;;17.68;80.71;101308.22;4988479;28;20698;-63
2023/06/09 00:30:07;;;;;;;6.90;3.38;;;;;;;17.65;80.61;101302.91;4989081;28;20129;-63
2023/06/09 00:32:32;;;;;;;9.85;4.07;;;;;;;17.59;80.76;101303.72;4988316;28;20026;-63
2023/06/09 00:34:58;;;;;;;6.10;3.83;;;;;;;17.58;81.13;101301.09;4988492;28;20042;-63
2023/06/09 00:37:23;;;;;;;7.70;4.18;;;;;;;17.54;81.11;101304.56;4987982;28;20019;-63
2023/06/09 00:39:48;;;;;;;10.80;4.20;;;;;;;17.50;82.31;101303.66;4989211;28;20061;-63
2023/06/09 00:42:13;;;;;;;9.48;4.50;;;;;;;17.45;82.55;101306.22;4988619;28;20064;-63
2023/06/09 00:44:39;;;;;;;7.95;3.83;;;;;;;17.42;83.90;101305.31;4988054;28;20170;-63
2023/06/09 00:47:06;;;;;;;7.82;4.40;;;;;;;17.36;82.74;101308.75;4988327;28;20045;-63
2023/06/09 00:49:32;;;;;;;8.43;3.95;;;;;;;17.32;83.40;101299.09;4988138;28;20034;-63
2023/06/09 00:51:57;;;;;;;8.05;3.97;;;;;;;17.25;83.96;101309.47;4988011;28;20360;-63
2023/06/09 00:54:23;;;;;;;6.68;3.25;;;;;;;17.23;84.06;101306.00;4988529;28;20025;-64
2023/06/09 00:56:50;;;;;;;5.55;3.45;;;;;;;17.20;82.99;101305.94;4988114;28;20034;-63
2023/06/09 00:59:15;;;;;;;5.85;3.35;;;;;;;17.18;82.95;101302.41;4988927;28;20532;-63
2023/06/09 01:01:43;;;;;;;8.65;3.55;;;;;;;17.13;83.00;101301.50;4987892;28;20026;-63
2023/06/09 01:04:08;;;;;;;5.53;3.55;;;;;;;17.09;83.88;101294.44;4988035;28;20486;-63
2023/06/09 01:06:46;;;;;;;7.05;3.63;;;;;;;17.03;83.83;101298.75;4988228;28;20233;-63
2023/06/09 01:09:24;;;;;;;5.80;3.97;;;;;;;16.98;83.41;101294.31;4977956;28;20033;-63
2023/06/09 01:12:22;;;;;;;6.07;3.60;;;;;;;16.98;83.68;101294.31;4988531;28;20376;-63
2023/06/09 01:14:56;;;;;;;7.85;4.32;;;;;;;16.95;85.19;101299.47;4987588;28;20066;-63
2023/06/09 01:17:23;;;;;;;6.93;3.75;;;;;;;16.89;83.77;101289.84;4987844;28;20034;-63
2023/06/09 01:19:54;;;;;;;5.10;3.67;;;;;;;16.87;83.90;101286.31;4988184;28;20414;-63
2023/06/09 01:22:44;;;;;;;5.80;3.72;;;;;;;16.84;84.32;101287.16;4987902;28;20033;-63
2023/06/09 01:25:17;;;;;;;9.40;4.15;;;;;;;16.79;84.38;101283.59;4987397;28;20085;-63
2023/06/09 01:27:44;;;;;;;6.15;4.20;;;;;;;16.78;84.91;101281.84;4988039;28;20026;-63
2023/06/09 01:30:11;;;;;;;6.57;3.70;;;;;;;16.72;84.16;101287.88;4987934;28;20026;-63
2023/06/09 01:32:40;;;;;;;6.22;4.20;;;;;;;16.72;83.75;101280.03;4987945;28;20049;-63
2023/06/09 01:35:07;;;;;;;5.40;3.80;;;;;;;16.69;83.79;101278.22;4987484;28;20082;-62
2023/06/09 01:37:33;;;;;;;6.00;3.63;;;;;;;16.67;85.61;101279.09;4987731;28;20058;-63
2023/06/09 01:39:58;;;;;;;6.70;3.85;;;;;;;16.66;83.49;101272.97;4987773;28;20069;-63
2023/06/09 01:42:24;;;;;;;7.57;4.20;;;;;;;16.66;84.12;101285.16;4988171;28;20025;-63
2023/06/09 01:44:50;;;;;;;10.73;5.00;;;;;;;16.63;83.83;101274.66;4987895;28;20027;-63
2023/06/09 01:47:18;;;;;;;7.85;4.20;;;;;;;16.55;83.43;101275.44;4987679;28;20022;-63
2023/06/09 01:49:57;;;;;;;8.07;4.28;;;;;;;16.52;84.31;101277.13;4988191;28;20018;-63
2023/06/09 01:52:36;;;;;;;8.82;4.18;;;;;;;16.48;84.34;101276.19;4987641;28;20025;-63
2023/06/09 01:55:17;;;;;;;8.05;4.15;;;;;;;16.43;85.35;101275.25;4987353;28;20390;-63
2023/06/09 01:57:55;;;;;;;7.28;4.55;;;;;;;16.38;85.15;101276.91;4987785;28;20030;-63
2023/06/09 02:00:26;;;;;;;7.25;4.90;;;;;;;16.33;85.65;101264.66;4987288;28;20022;-63
2023/06/09 02:02:56;;;;;;;6.88;4.13;;;;;;;16.28;85.81;101271.56;4973950;28;20026;-63
2023/06/09 02:05:21;;;;;;;9.23;4.38;;;;;;;16.26;86.77;101272.41;4987433;28;20026;-63
2023/06/09 02:07:48;;;;;;;8.48;4.20;;;;;;;16.23;86.08;101273.22;4988045;28;20497;-63
2023/06/09 02:10:14;;;;;;;7.90;4.75;;;;;;;16.22;86.35;101271.47;4987483;28;20030;-63
2023/06/09 02:12:40;;;;;;;8.05;3.90;;;;;;;16.18;85.98;101269.66;4985837;28;20022;-63
2023/06/09 02:15:06;;;;;;;6.95;4.18;;;;;;;16.14;85.20;101266.13;4987432;28;20026;-63
2023/06/09 02:17:34;;;;;;;11.88;4.72;;;;;;;16.13;85.91;101266.09;4987128;28;20193;-63
2023/06/09 02:20:00;;;;;;;7.32;4.07;;;;;;;16.12;85.49;101253.91;4987520;28;20037;-63
2023/06/09 02:22:26;;;;;;;7.05;4.45;;;;;;;16.11;86.26;101257.34;4987602;28;20026;-63
2023/06/09 02:24:51;;;;;;;8.45;4.78;;;;;;;16.04;86.05;101257.25;4987529;28;20033;-63
2023/06/09 02:27:17;;;;;;;5.82;3.95;;;;;;;16.02;87.02;101261.59;4987410;28;20053;-63
2023/06/09 02:29:43;;;;;;;7.78;4.22;;;;;;;15.92;86.27;101257.88;4984048;28;20113;-63
2023/06/09 02:32:08;;;;;;;5.25;4.13;;;;;;;15.90;87.30;101250.91;4987386;28;20037;-63
2023/06/09 02:34:34;;;;;;;6.22;3.58;;;;;;;15.86;88.48;101263.03;4986584;28;20034;-63
2023/06/09 02:37:00;;;;;;;6.43;4.05;;;;;;;15.81;87.85;101255.09;4987978;28;20138;-63
2023/06/09 02:39:26;;;;;;;7.35;4.90;;;;;;;15.77;88.99;101258.53;4990475;28;20400;-63
2023/06/09 02:41:51;;;;;;;6.97;4.80;;;;;;;15.75;89.56;101255.00;4991320;28;20037;-63
2023/06/09 02:44:17;;;;;;;6.97;4.50;;;;;;;15.75;89.65;101255.00;4990649;28;20031;-63
2023/06/09 02:46:43;;;;;;;9.70;4.80;;;;;;;15.67;88.96;101244.41;4990459;28;20034;-63
2023/06/09 02:49:08;;;;;;;7.35;4.18;;;;;;;15.65;91.09;101245.25;4991005;28;20037;-63
2023/06/09 02:51:34;;;;;;;8.77;3.95;;;;;;;15.58;90.34;101242.53;4990005;28;20062;-63
2023/06/09 02:54:00;;;;;;;6.25;3.90;;;;;;;15.55;89.49;101255.53;4990809;28;20061;-63
2023/06/09 02:56:26;;;;;;;6.47;4.13;;;;;;;15.56;90.12;101248.59;4991239;28;20597;-63
2023/06/09 02:58:51;;;;;;;9.07;5.30;;;;;;;15.55;89.92;101257.25;4990491;28;20022;-63
2023/06/09 03:01:17;;;;;;;8.82;4.32;;;;;;;15.52;90.69;101258.09;4990692;28;20026;-63
2023/06/09 03:03:44;;;;;;;7.55;4.60;;;;;;;15.49;90.54;101256.31;4990124;28;20438;-63
2023/06/09 03:06:09;;;;;;;6.75;4.55;;;;;;;15.46;91.26;101250.13;4990510;28;20026;-63
2023/06/09 03:08:34;;;;;;;6.85;4.57;;;;;;;15.45;91.13;101257.09;4990181;28;20066;-63
2023/06/09 03:11:00;;;;;;;9.98;4.90;;;;;;;15.43;92.26;101265.75;4988583;28;20363;-63
2023/06/09 03:13:25;;;;;;;8.13;5.05;;;;;;;15.41;91.06;101262.22;4988845;28;20296;-61
2023/06/09 03:15:50;;;;;;;9.75;5.35;;;;;;;15.38;92.84;101259.56;4989027;28;20410;-63
2023/06/09 03:18:16;;;;;;;8.48;4.88;;;;;;;15.35;93.56;101263.00;4989053;28;20014;-62
2023/06/09 03:20:42;;;;;;;11.13;6.22;;;;;;;15.32;94.44;101258.63;4987690;28;20073;-63
2023/06/09 03:23:08;;;;;;;9.25;5.45;;;;;;;15.29;93.57;101261.13;4988532;28;20114;-63
2023/06/09 03:25:34;;;;;;;9.63;5.40;;;;;;;15.28;93.85;101259.41;4987665;28;20101;-63
2023/06/09 03:28:00;;;;;;;8.80;5.15;;;;;;;15.28;93.59;101264.63;4988520;28;20061;-63
2023/06/09 03:30:26;;;;;;;11.85;4.75;;;;;;;15.24;94.15;101263.69;4989039;28;20504;-62
2023/06/09 03:32:51;;;;;;;8.05;5.53;;;;;;;15.21;94.83;101262.72;4989994;28;20026;-63
2023/06/09 03:35:16;;;;;;;7.43;5.07;;;;;;;15.19;95.93;101254.00;4989821;28;20061;-62
2023/06/09 03:37:42;;;;;;;7.80;5.35;;;;;;;15.18;94.41;101252.25;4990407;28;20034;-63
2023/06/09 03:40:07;;;;;;;7.78;5.03;;;;;;;15.16;94.35;101275.72;4989311;28;20010;-63
2023/06/09 03:42:33;;;;;;;9.30;5.32;;;;;;;15.15;94.81;101273.06;4989532;28;20049;-63
2023/06/09 03:44:58;;;;;;;10.48;5.70;;;;;;;15.16;94.88;101287.88;4989888;28;20033;-63
2023/06/09 03:47:24;;;;;;;7.15;4.70;;;;;;;15.11;95.17;101278.22;4989496;28;20119;-63
2023/06/09 03:49:50;;;;;;;10.10;5.03;;;;;;;15.05;94.77;101288.53;4987201;28;20022;-63
2023/06/09 03:52:15;;;;;;;10.63;5.30;;;;;;;15.03;95.31;101287.63;4988270;28;20033;-62
2023/06/09 03:54:41;;;;;;;8.43;5.55;;;;;;;15.02;95.51;101288.44;4989737;28;20026;-64
2023/06/09 03:57:06;;;;;;;8.85;5.68;;;;;;;15.00;95.76;101284.97;4989251;28;20033;-63
2023/06/09 03:59:31;;;;;;;11.10;5.55;;;;;;;14.99;95.81;101285.78;4989381;28;20034;-63
2023/06/09 04:01:57;;;;;;;11.25;5.45;;;;;;;15.01;96.21;101281.47;4988385;28;20019;-63
2023/06/09 04:04:22;;;;;;;8.27;5.80;;;;;;;15.02;96.45;101288.44;4988752;28;20049;-63
2023/06/09 04:06:48;;;;;;;8.88;5.72;;;;;;;14.96;96.55;101283.13;4988511;28;20025;-63
2023/06/09 04:09:13;;;;;;;10.20;5.28;;;;;;;14.96;97.36;101283.13;4988951;28;20022;-63
2023/06/09 04:11:39;;;;;;;12.90;5.60;;;;;;;14.92;97.36;101287.41;4989188;28;20027;-63
2023/06/09 04:14:05;;;;;;;9.18;5.32;;;;;;;14.94;98.82;101279.59;4989515;28;20064;-63
2023/06/09 04:16:31;;;;;;;12.40;5.60;;;;;;;14.94;97.70;101279.59;4988246;28;20026;-62
2023/06/09 04:18:56;;;;;;;11.18;5.95;;;;;;;14.97;99.17;101295.31;4989149;28;20166;-63
2023/06/09 04:21:22;;;;;;;9.93;6.07;;;;;;;14.97;98.13;101290.09;4988869;28;20029;-63
2023/06/09 04:23:47;;;;;;;11.35;5.85;;;;;;;14.97;98.34;101292.69;4989132;28;20098;-63
2023/06/09 04:26:13;;;;;;;11.43;6.22;;;;;;;14.96;98.09;101293.56;4989285;28;20497;-63
2023/06/09 04:28:40;;;;;;;10.55;5.63;;;;;;;14.99;98.51;101289.28;4988439;28;20025;-63
2023/06/09 04:31:07;;;;;;;10.32;5.97;;;;;;;14.97;98.53;101293.59;4989242;28;20031;-63
2023/06/09 04:33:35;;;;;;;12.07;5.95;;;;;;;15.00;98.54;101295.41;4988838;28;20030;-63
2023/06/09 04:36:03;;;;;;;11.75;5.50;;;;;;;14.99;98.81;101302.34;4988923;28;20133;-62
2023/06/09 04:38:32;;;;;;;10.30;6.05;;;;;;;15.02;98.71;101303.25;4988716;28;20027;-63
2023/06/09 04:41:02;;;;;;;13.15;5.90;;;;;;;14.98;99.11;101297.97;4988789;28;20022;-62
2023/06/09 04:43:28;;;;;;;10.55;6.03;;;;;;;15.01;98.88;101297.13;4987757;28;20023;-63
2023/06/09 04:45:55;;;;;;;8.25;5.43;;;;;;;15.05;98.40;101298.09;4988757;28;20027;-63
2023/06/09 04:48:21;;;;;;;9.48;5.80;;;;;;;15.08;99.65;101293.81;4988107;28;20390;-62
2023/06/09 04:50:47;;;;;;;10.80;5.95;;;;;;;15.10;98.37;101294.72;4987952;28;20452;-62
2023/06/09 04:53:15;;;;;;;9.13;6.00;;;;;;;15.12;98.93;101295.66;4988583;28;20033;-63
2023/06/09 04:55:40;;;;;;;12.05;5.80;;;;;;;15.16;98.10;101295.69;4988597;28;20038;-63
2023/06/09 04:58:06;;;;;;;10.57;5.72;;;;;;;15.15;98.52;101297.41;4988985;28;20092;-61
2023/06/09 05:00:31;;;;;;;18.40;6.30;;;;;;;15.21;98.75;101294.94;4975355;28;20766;-63
2023/06/09 05:02:57;;;;;;;10.70;6.43;;;;;;;15.28;98.84;101289.84;4988198;28;20390;-63
2023/06/09 05:05:22;;;;;;;12.23;6.30;;;;;;;15.31;99.14;101301.22;4975964;28;20026;-63
2023/06/09 05:07:48;;;;;;;9.45;5.32;;;;;;;15.32;98.83;101305.59;4988316;28;20069;-62
2023/06/09 05:10:13;;;;;;;8.63;5.53;;;;;;;15.32;98.45;101300.38;4976201;28;20038;-63
2023/06/09 05:12:39;;;;;;;10.73;5.68;;;;;;;15.36;99.77;101294.34;4987897;28;20533;-62
2023/06/09 05:15:05;;;;;;;14.95;6.57;;;;;;;15.40;99.69;101313.56;4988659;28;20018;-63
2023/06/09 05:17:33;;;;;;;11.98;6.15;;;;;;;15.46;99.62;101302.38;4986992;28;20076;-63
2023/06/09 05:19:58;;;;;;;9.32;5.68;;;;;;;15.56;100.00;101306.91;4988672;28;20014;-63
2023/06/09 05:22:24;;;;;;;10.65;5.55;;;;;;;15.63;99.55;101304.44;4988468;28;20018;-63
2023/06/09 05:24:49;;;;;;;11.25;6.18;;;;;;;15.69;98.69;101307.13;4987417;28;20103;-61
2023/06/09 05:27:14;;;;;;;11.10;6.22;;;;;;;15.72;99.66;101302.00;4986838;28;20060;-63
2023/06/09 05:29:40;;;;;;;10.70;6.30;;;;;;;15.75;98.84;101306.38;4988208;28;20109;-63
2023/06/09 05:32:06;;;;;;;10.43;6.72;;;;;;;15.73;99.70;101307.22;4988090;28;20057;-63
2023/06/09 05:34:31;;;;;;;13.10;7.03;;;;;;;15.80;99.70;101307.31;4987713;28;20031;-63
2023/06/09 05:36:57;;;;;;;12.88;7.00;;;;;;;15.88;99.73;101307.47;4987780;28;20076;-63
2023/06/09 05:39:22;;;;;;;12.55;6.93;;;;;;;15.97;99.40;101311.09;4988398;28;20037;-63
2023/06/09 05:41:47;;;;;;;11.23;6.82;;;;;;;16.06;100.00;101307.81;4987999;28;20023;-63
2023/06/09 05:44:12;;;;;;;13.57;7.47;;;;;;;16.13;98.95;101305.31;4987887;28;20478;-63
2023/06/09 05:46:38;;;;;;;10.70;6.35;;;;;;;16.23;99.51;101312.44;4987935;28;20027;-63
2023/06/09 05:49:03;;;;;;;10.32;6.85;;;;;;;16.31;99.16;101312.56;4987421;28;20077;-63
2023/06/09 05:51:29;;;;;;;13.85;8.20;;;;;;;16.41;98.80;101297.88;4987444;28;20069;-63
2023/06/09 05:53:54;;;;;;;11.48;7.40;;;;;;;16.53;98.78;101305.91;4996140;28;20109;-63
2023/06/09 05:56:19;;;;;;;10.20;6.28;;;;;;;16.67;99.15;101305.25;4997691;28;20474;-63
2023/06/09 05:58:45;;;;;;;11.90;6.72;;;;;;;16.77;98.00;101306.22;4996491;28;20125;-63
2023/06/09 06:01:13;;;;;;;12.07;7.65;;;;;;;16.89;99.59;101302.94;4990077;28;20066;-63
2023/06/09 06:03:41;;;;;;;9.35;6.78;;;;;;;16.96;98.77;101306.50;4996888;28;20030;-63
2023/06/09 06:06:06;;;;;;;13.10;7.35;;;;;;;17.07;98.26;101307.50;4992256;28;20088;-64
2023/06/09 06:08:31;;;;;;;11.20;7.03;;;;;;;17.20;96.85;101305.94;4991706;28;20034;-64
2023/06/09 06:10:57;;;;;;;7.57;6.55;;;;;;;17.34;96.60;101305.22;4994417;28;20040;-63
2023/06/09 06:13:22;;;;;;;11.30;6.85;;;;;;;17.49;96.95;101308.00;4992096;28;20512;-63
2023/06/09 06:15:47;;;;;;;11.18;7.90;;;;;;;17.56;96.04;101303.72;4996568;28;20030;-63
2023/06/09 06:18:12;;;;;;;12.98;7.13;;;;;;;17.72;96.91;101303.88;4992603;28;20026;-63
2023/06/09 06:20:38;;;;;;;13.98;7.80;;;;;;;17.87;94.78;101308.38;4998576;28;20022;-63
2023/06/09 06:23:03;;;;;;;12.40;8.18;;;;;;;17.93;93.67;101297.06;4997879;28;20034;-63
2023/06/09 06:25:28;;;;;;;12.68;8.23;;;;;;;17.99;93.30;101308.47;4998087;28;20056;-63
2023/06/09 06:27:55;;;;;;;11.82;8.40;;;;;;;18.16;93.12;101310.41;4993499;28;20038;-63
2023/06/09 06:30:20;;;;;;;12.43;7.65;;;;;;;18.32;92.76;101305.25;4994953;28;20031;-64
2023/06/09 06:32:50;;;;;;;11.32;7.75;;;;;;;18.50;92.23;101311.50;4992363;28;20128;-64
2023/06/09 06:35:23;;;;;;;13.18;8.32;;;;;;;18.66;90.37;101308.09;4998631;28;20042;-62
2023/06/09 06:37:48;;;;;;;12.25;9.02;;;;;;;18.78;89.73;101309.06;4981856;28;20050;-63
2023/06/09 06:40:13;;;;;;;10.85;8.35;;;;;;;18.94;90.16;101300.34;4997028;28;20014;-64
2023/06/09 06:42:39;;;;;;;11.32;8.82;;;;;;;19.10;90.19;101310.06;4991197;28;20018;-62
2023/06/09 06:45:05;;;;;;;11.60;8.45;;;;;;;19.26;88.40;101308.41;4990558;28;20387;-64
2023/06/09 06:47:30;;;;;;;15.00;9.02;;;;;;;19.38;87.47;101304.91;4990664;28;20037;-63
2023/06/09 06:49:55;;;;;;;12.15;7.90;;;;;;;19.56;86.78;101309.34;4989977;28;20026;-64
2023/06/09 06:52:21;;;;;;;14.05;8.48;;;;;;;19.74;88.12;101302.34;4990854;28;20019;-64
2023/06/09 06:54:46;;;;;;;13.90;8.68;;;;;;;19.85;84.72;101295.34;4990969;28;20030;-64
2023/06/09 06:57:11;;;;;;;12.82;8.05;;;;;;;20.02;85.03;101302.38;4990588;28;20136;-64
2023/06/09 06:59:36;;;;;;;12.13;7.72;;;;;;;20.19;84.45;101298.88;4990557;28;20030;-64
2023/06/09 07:02:02;;;;;;;12.05;7.82;;;;;;;20.31;82.92;101306.75;4990070;28;20023;-64
2023/06/09 07:04:27;;;;;;;11.50;7.65;;;;;;;20.40;82.14;101301.47;4990327;28;20034;-64
2023/06/09 07:06:53;;;;;;;10.73;8.07;;;;;;;20.58;82.58;101307.56;4990343;28;20095;-64
2023/06/09 07:09:19;;;;;;;12.85;7.95;;;;;;;20.70;81.90;101308.44;4990558;28;20517;-64
2023/06/09 07:11:44;;;;;;;12.20;8.68;;;;;;;20.78;80.42;101311.91;4990340;28;20072;-64
2023/06/09 07:14:09;;;;;;;9.82;7.75;;;;;;;20.90;81.25;101311.00;4989993;28;20030;-64
2023/06/09 07:16:35;;;;;;;12.63;8.70;;;;;;;21.07;80.23;101310.06;4990502;28;20092;-64
2023/06/09 07:19:00;;;;;;;8.65;7.75;;;;;;;21.06;79.95;101301.31;4989804;28;20030;-64
2023/06/09 07:21:25;;;;;;;9.27;7.63;;;;;;;21.19;79.57;101311.78;4990091;28;20022;-64
2023/06/09 07:23:51;;;;;;;10.93;8.70;;;;;;;21.38;78.59;101319.59;4989507;28;20528;-64
2023/06/09 07:26:16;;;;;;;11.45;8.45;;;;;;;21.55;78.62;101312.44;4990049;28;20579;-64
2023/06/09 07:28:41;;;;;;;10.40;7.68;;;;;;;21.76;79.21;101321.09;4989467;28;20367;-64
2023/06/09 07:31:06;;;;;;;11.15;7.60;;;;;;;21.92;75.53;101318.38;4988867;28;20104;-64
2023/06/09 07:33:33;;;;;;;12.82;8.98;;;;;;;21.96;73.00;101306.94;4989305;28;20026;-64
2023/06/09 07:35:58;;;;;;;9.25;8.30;;;;;;;22.09;73.31;101309.44;4989399;28;20053;-64
2023/06/09 07:38:27;;;;;;;10.27;6.80;;;;;;;22.22;74.02;101313.72;4989281;28;20022;-64
2023/06/09 07:40:53;;;;;;;13.02;8.90;;;;;;;22.33;73.34;101312.72;4987827;28;20430;-65
2023/06/09 07:43:18;;;;;;;10.10;7.75;;;;;;;22.39;73.09;101321.50;4982093;28;20022;-65
2023/06/09 07:45:45;;;;;;;9.23;7.53;;;;;;;22.47;73.97;101313.47;4990533;28;20022;-65
2023/06/09 07:48:10;;;;;;;11.20;8.57;;;;;;;22.53;71.98;101308.13;4990079;28;20034;-65
2023/06/09 07:50:36;;;;;;;12.85;8.57;;;;;;;22.67;72.95;101315.94;4990733;28;20030;-65
2023/06/09 07:53:03;;;;;;;10.73;8.30;;;;;;;22.78;71.95;101307.00;4988991;28;20018;-66
2023/06/09 07:55:28;;;;;;;9.50;8.18;;;;;;;22.88;71.03;101313.06;4988120;28;20026;-65
2023/06/09 07:57:55;;;;;;;10.82;7.55;;;;;;;23.03;71.61;101307.56;4987951;28;20092;-65
2023/06/09 08:00:21;;;;;;;11.50;8.13;;;;;;;23.15;70.70;101298.59;4987666;28;20033;-65
2023/06/09 08:02:46;;;;;;;11.43;7.65;;;;;;;23.26;70.16;101301.09;4987398;28;20018;-65
2023/06/09 08:05:11;;;;;;;9.88;8.13;;;;;;;23.39;68.70;101303.56;4986483;28;20389;-65
2023/06/09 08:07:37;;;;;;;12.55;8.00;;;;;;;23.49;68.93;101304.34;4985868;28;20041;-65
2023/06/09 08:10:02;;;;;;;10.85;7.57;;;;;;;23.64;68.65;101305.88;4984329;28;20030;-65
2023/06/09 08:12:28;;;;;;;12.73;8.02;;;;;;;23.79;67.32;101301.25;4986698;28;20486;-65
2023/06/09 08:14:53;;;;;;;9.80;8.15;;;;;;;23.85;65.57;101301.16;4986039;28;20341;-65
2023/06/09 08:17:18;;;;;;;10.13;8.25;;;;;;;24.03;67.55;101301.72;4986995;28;20104;-65
2023/06/09 08:19:44;;;;;;;9.55;7.90;;;;;;;24.04;65.27;101295.53;4986938;28;20031;-65
2023/06/09 08:22:09;;;;;;;12.18;8.90;;;;;;;24.11;65.92;101294.53;4982079;28;20273;-65
2023/06/09 08:24:34;;;;;;;8.60;7.70;;;;;;;24.33;66.58;101296.81;4984081;28;20034;-65
2023/06/09 08:27:00;;;;;;;16.25;8.50;;;;;;;24.54;66.50;101299.94;4987212;28;20065;-65
2023/06/09 08:29:25;;;;;;;14.05;8.85;;;;;;;24.61;64.31;101290.97;4987094;28;20103;-65
2023/06/09 08:31:50;;;;;;;11.93;8.93;;;;;;;24.74;62.05;101296.00;4987196;28;20088;-65
2023/06/09 08:34:16;;;;;;;9.07;7.80;;;;;;;24.80;61.83;101296.78;4986306;28;20030;-65
2023/06/09 08:36:41;;;;;;;10.05;8.13;;;;;;;24.91;61.72;101293.91;4987994;28;20042;-65
2023/06/09 08:39:07;;;;;;;10.88;7.35;;;;;;;25.03;62.31;101291.91;4988242;28;20053;-66
2023/06/09 08:41:37;;;;;;;11.38;8.40;;;;;;;25.15;61.96;101288.16;4988330;28;20181;-65
2023/06/09 08:44:04;;;;;;;;;;;;;;;25.16;61.29;101288.09;4989793;28;20034;-65
2023/06/09 08:46:33;;;;;;;9.85;7.70;;;;;;;25.41;60.17;101300.78;4989095;28;19932;-65
2023/06/09 08:49:01;;;;;;;10.32;7.65;;;;;;;25.59;59.44;101301.25;4989123;28;20070;-65
2023/06/09 08:51:28;;;;;;;11.88;8.05;;;;;;;25.77;59.75;101305.28;4988585;28;20026;-65
2023/06/09 08:53:53;;;;;;;11.27;8.98;;;;;;;25.72;56.60;101301.88;4988585;28;20032;-65
2023/06/09 08:56:21;;;;;;;7.13;6.43;;;;;;;25.85;57.90;101294.47;4989946;28;20422;-66
2023/06/09 08:58:48;;;;;;;9.52;6.30;;;;;;;25.99;59.16;101290.59;4989684;28;20030;-65
2023/06/09 09:01:15;;;;;;;7.10;6.38;;;;;;;26.21;60.56;101292.69;4989411;28;20026;-65
2023/06/09 09:03:40;;;;;;;7.47;6.60;;;;;;;26.36;58.33;101291.41;4988461;28;20038;-65
2023/06/09 09:06:06;;;;;;;12.00;7.55;;;;;;;26.43;56.20;101284.13;4988339;28;20041;-65
2023/06/09 09:08:32;;;;;;;10.15;7.72;;;;;;;26.49;56.06;101279.53;4988047;28;20026;-65
2023/06/09 09:10:57;;;;;;;8.05;7.05;;;;;;;26.45;54.58;101279.66;4988104;28;20018;-65
2023/06/09 09:13:30;;;;;;;10.63;7.10;;;;;;;26.46;54.40;101281.41;4986725;28;20088;-65
2023/06/09 09:15:55;;;;;;;6.38;5.78;;;;;;;26.55;55.05;101274.97;4987286;28;20030;-66
2023/06/09 09:18:21;;;;;;;11.80;7.65;;;;;;;26.65;54.40;101281.75;4987714;28;20057;-65
2023/06/09 09:20:47;;;;;;;7.18;5.72;;;;;;;26.78;53.40;101279.63;4987145;28;20361;-65
2023/06/09 09:23:13;;;;;;;6.50;5.90;;;;;;;26.91;52.26;101281.91;4988312;28;20375;-65
2023/06/09 09:25:39;;;;;;;8.90;6.72;;;;;;;26.88;52.22;101271.38;4988038;28;20054;-65
2023/06/09 09:28:12;;;;;;;9.30;7.15;;;;;;;27.02;53.44;101285.09;4987875;28;20046;-66
2023/06/09 09:30:46;;;;;;;11.50;5.88;;;;;;;27.21;56.26;101263.28;4988177;28;20065;-64
2023/06/09 09:33:15;;;;;;;7.40;6.70;;;;;;;27.36;54.47;101269.03;4988232;28;20347;-64
2023/06/09 09:35:44;;;;;;;7.57;5.75;;;;;;;27.55;54.72;101262.19;4987741;28;20053;-64
2023/06/09 09:38:18;;;;;;;6.10;5.38;;;;;;;27.65;51.27;101259.22;4987335;28;20025;-64
2023/06/09 09:40:46;;;;;;;8.40;5.85;;;;;;;27.66;49.16;101252.97;4988223;28;20492;-64
2023/06/09 09:43:11;;;;;;;6.05;4.80;;;;;;;27.75;49.55;101254.47;4988571;28;20084;-64
2023/06/09 09:45:39;;;;;;;8.35;6.45;;;;;;;27.84;47.72;101255.94;4988386;28;20473;-64
2023/06/09 09:48:10;;;;;;;6.97;6.28;;;;;;;27.85;47.25;101257.72;4989679;28;20065;-64
2023/06/09 09:50:36;;;;;;;6.60;5.75;;;;;;;27.80;46.21;101256.06;4991244;28;20030;-64
2023/06/09 09:53:05;;;;;;;5.68;5.07;;;;;;;27.84;45.32;101247.97;4991269;28;20075;-64
2023/06/09 09:55:33;;;;;;;6.22;4.60;;;;;;;27.99;45.08;101247.41;4992801;28;20037;-65
2023/06/09 09:58:03;;;;;;;5.55;5.05;;;;;;;28.05;43.64;101255.22;4993151;28;20037;-64
2023/06/09 10:00:29;;;;;;;5.65;5.03;;;;;;;28.16;44.50;101249.50;4992994;28;20033;-64
2023/06/09 10:02:59;;;;;;;7.63;5.78;;;;;;;28.20;44.29;101252.91;4990779;28;20039;-64
2023/06/09 10:05:28;;;;;;;6.15;5.28;;;;;;;28.28;44.51;101250.84;4988673;28;20030;-64
2023/06/09 10:07:57;;;;;;;9.27;5.05;;;;;;;28.35;47.91;101251.50;4991162;28;20085;-64
2023/06/09 10:10:26;;;;;;;6.80;5.50;;;;;;;28.40;43.78;101254.00;4991040;28;20278;-64
2023/06/09 10:12:52;;;;;;;7.28;5.00;;;;;;;28.36;42.91;101247.06;4991814;28;20049;-65
2023/06/09 10:15:19;;;;;;;7.55;5.68;;;;;;;28.38;42.39;101245.22;4992135;28;20026;-64
2023/06/09 10:17:47;;;;;;;5.38;4.88;;;;;;;28.43;43.67;101248.56;4991600;28;20018;-65
2023/06/09 10:20:13;;;;;;;11.52;5.53;;;;;;;28.33;41.24;101241.81;4991899;28;20030;-65
2023/06/09 10:22:40;;;;;;;7.55;4.22;;;;;;;28.43;42.52;101245.03;4992089;28;20053;-64
2023/06/09 10:25:06;;;;;;;7.78;5.43;;;;;;;28.42;43.06;101241.50;4991444;28;20038;-64
2023/06/09 10:27:33;;;;;;;6.63;5.50;;;;;;;28.49;43.92;101247.47;4991574;28;20030;-65
2023/06/09 10:30:00;;;;;;;7.72;6.15;;;;;;;28.58;44.49;101240.94;4987654;28;20157;-64
2023/06/09 10:32:29;;;;;;;6.90;6.20;;;;;;;28.69;46.24;101241.41;4987329;28;20042;-64
2023/06/09 10:34:57;;;;;;;7.78;6.68;;;;;;;28.70;45.22;101234.25;4975815;28;20491;-64
2023/06/09 10:37:28;;;;;;;7.00;5.80;;;;;;;28.78;44.94;101232.16;4978072;28;20807;-64
2023/06/09 10:40:09;;;;;;;;;;;;;;;28.84;44.29;101231.03;4990567;28;20034;-64
2023/06/09 10:43:01;;;;;;;6.68;6.03;;;;;;;28.90;44.42;101230.81;4990753;28;19909;-64
2023/06/09 10:45:53;;;;;;;7.43;6.72;;;;;;;28.95;44.67;101233.28;4991502;28;20568;-64
2023/06/09 10:48:44;;;;;;;6.10;5.53;;;;;;;29.04;45.22;101238.28;4991624;28;20077;-64
2023/06/09 10:51:26;;;;;;;7.70;6.85;;;;;;;29.09;44.47;101232.78;4989828;28;20030;-65
2023/06/09 10:54:12;;;;;;;10.50;6.80;;;;;;;29.14;44.34;101217.47;4989869;28;20543;-65
2023/06/09 10:56:43;;;;;;;7.65;6.63;;;;;;;29.08;43.65;101218.56;4990003;28;20077;-65
2023/06/09 10:59:23;;;;;;;7.03;6.40;;;;;;;29.16;44.80;101214.72;4988471;28;20019;-65
2023/06/09 11:02:01;;;;;;;7.15;6.45;;;;;;;29.09;42.07;101230.13;4989347;28;20030;-65
2023/06/09 11:04:43;;;;;;;7.03;4.95;;;;;;;29.14;43.79;101214.78;4988825;28;20053;-65
2023/06/09 11:07:39;;;;;;;6.28;5.57;;;;;;;29.09;42.02;101222.13;4990566;28;20114;-65
2023/06/09 11:10:07;;;;;;;5.32;4.78;;;;;;;29.14;41.73;101222.78;4978640;28;20058;-65
2023/06/09 11:12:38;;;;;;;6.38;5.80;;;;;;;29.11;40.85;101217.56;4990882;28;20030;-65
2023/06/09 11:15:05;;;;;;;8.35;5.70;;;;;;;29.13;41.64;101213.91;4990835;28;20034;-65
2023/06/09 11:17:41;;;;;;;7.38;5.47;;;;;;;29.08;41.81;101210.56;4990296;28;20105;-64
2023/06/09 11:20:14;;;;;;;6.45;5.82;;;;;;;29.10;41.79;101215.84;4991021;28;20364;-65
2023/06/09 11:22:47;;;;;;;6.95;5.82;;;;;;;29.11;41.96;101221.09;4991095;28;20034;-65